Time;durP1;ratioP1;P1;durP2;ratioP2;P2;SDS_P1;SDS_P2;PMS_P1;PMS_P2;Temp;Humidity;BMP_temperature;BMP_pressure;BME280_temperature;BME280_humidity;BME280_pressure;Samples;Min_cycle;Max_cycle;Signal;HPM_P1;HPM_P2
2022/04/13 00:00:43;;;;;;;6.82;2.60;;;;;;;;;;6253560;23;20027;-90
2022/04/13 00:03:11;;;;;;;6.47;2.80;;;;;;;;;;6250304;22;20031;-88
2022/04/13 00:05:39;;;;;;;5.47;3.05;;;;;;;;;;6249738;23;20439;-89
2022/04/13 00:08:07;;;;;;;5.25;2.63;;;;;;;;;;6248951;23;20024;-88
2022/04/13 00:10:35;;;;;;;6.30;2.63;;;;;;;;;;6250391;23;20050;-87
2022/04/13 00:13:03;;;;;;;6.28;2.58;;;;;;;;;;6250277;22;20416;-88
2022/04/13 00:15:32;;;;;;;6.50;3.20;;;;;;;;;;6250226;22;20044;-88
2022/04/13 00:18:03;;;;;;;5.50;2.85;;;;;;;;;;6249950;22;20031;-87
2022/04/13 00:20:31;;;;;;;5.40;2.55;;;;;;;;;;6250241;22;20027;-88
2022/04/13 00:22:59;;;;;;;5.65;2.50;;;;;;;;;;6249268;23;20485;-89
2022/04/13 00:25:29;;;;;;;8.00;3.17;;;;;;;;;;6251745;23;20012;-91
2022/04/13 00:27:57;;;;;;;8.00;3.08;;;;;;;;;;6256771;22;20093;-92
2022/04/13 00:30:25;;;;;;;7.60;2.85;;;;;;;;;;6242858;23;20028;-91
2022/04/13 00:32:53;;;;;;;10.23;3.10;;;;;;;;;;6256065;23;20035;-91
2022/04/13 00:35:21;;;;;;;6.20;3.17;;;;;;;;;;6255395;22;20446;-89
2022/04/13 00:37:49;;;;;;;6.57;2.70;;;;;;;;;;6254159;23;20086;-89
2022/04/13 00:40:17;;;;;;;6.72;2.92;;;;;;;;;;6254725;23;20016;-89
2022/04/13 00:42:45;;;;;;;5.53;2.30;;;;;;;;;;6252653;23;20016;-89
2022/04/13 00:45:13;;;;;;;6.35;2.42;;;;;;;;;;6255073;23;20050;-90
2022/04/13 00:47:41;;;;;;;5.70;3.20;;;;;;;;;;6255297;23;20016;-90
2022/04/13 00:50:10;;;;;;;6.57;2.70;;;;;;;;;;6255237;22;20027;-90
2022/04/13 00:52:45;;;;;;;6.00;3.08;;;;;;;;;;6255247;22;20820;-90
2022/04/13 00:55:15;;;;;;;5.00;2.45;;;;;;;;;;6253936;23;20016;-90
2022/04/13 00:57:45;;;;;;;6.13;3.00;;;;;;;;;;6255678;22;20028;-90
2022/04/13 01:00:15;;;;;;;6.18;2.63;;;;;;;;;;6256165;22;20024;-90
2022/04/13 01:02:43;;;;;;;6.00;3.35;;;;;;;;;;6255467;22;20568;-90
2022/04/13 01:05:12;;;;;;;7.45;2.90;;;;;;;;;;6244302;23;20020;-90
2022/04/13 01:07:40;;;;;;;6.55;3.03;;;;;;;;;;6255536;22;20024;-90
2022/04/13 01:10:07;;;;;;;5.43;2.80;;;;;;;;;;6255618;22;20042;-90
2022/04/13 01:12:35;;;;;;;5.72;2.88;;;;;;;;;;6255440;22;20047;-92
2022/04/13 01:15:05;;;;;;;6.38;2.63;;;;;;;;;;6257870;22;20020;-92
2022/04/13 01:17:35;;;;;;;5.60;3.13;;;;;;;;;;6254709;23;20023;-92
2022/04/13 01:20:05;;;;;;;5.95;3.28;;;;;;;;;;6255799;22;20498;-92
2022/04/13 01:22:33;;;;;;;6.80;3.45;;;;;;;;;;6255403;22;20050;-92
2022/04/13 01:25:01;;;;;;;7.05;3.25;;;;;;;;;;6255367;22;20115;-92
2022/04/13 01:27:29;;;;;;;7.07;3.05;;;;;;;;;;6255205;23;20019;-92
2022/04/13 01:29:57;;;;;;;6.20;2.88;;;;;;;;;;6229514;23;20074;-92
2022/04/13 01:32:26;;;;;;;8.93;3.53;;;;;;;;;;6256049;23;20542;-92
2022/04/13 01:34:53;;;;;;;7.18;2.97;;;;;;;;;;6255866;22;20012;-92
2022/04/13 01:37:22;;;;;;;6.53;2.92;;;;;;;;;;6228061;23;20016;-92
2022/04/13 01:39:51;;;;;;;6.38;3.22;;;;;;;;;;6254555;22;20051;-92
2022/04/13 01:42:19;;;;;;;9.07;3.95;;;;;;;;;;6254116;23;20020;-92
2022/04/13 01:44:45;;;;;;;7.82;3.50;;;;;;;;;;6252489;23;20022;-92
2022/04/13 01:47:14;;;;;;;8.40;3.50;;;;;;;;;;6217026;23;20050;-90
2022/04/13 01:49:42;;;;;;;6.82;3.22;;;;;;;;;;6247528;22;20203;-90
2022/04/13 01:52:10;;;;;;;7.38;3.22;;;;;;;;;;6253768;22;20107;-90
2022/04/13 01:54:38;;;;;;;6.55;3.25;;;;;;;;;;6243922;23;20026;-89
2022/04/13 01:57:05;;;;;;;7.82;3.83;;;;;;;;;;6253596;22;20591;-89
2022/04/13 01:59:33;;;;;;;10.30;3.78;;;;;;;;;;6253614;23;20020;-89
2022/04/13 02:02:04;;;;;;;9.32;3.70;;;;;;;;;;6253554;23;20039;-90
2022/04/13 02:04:34;;;;;;;7.95;3.53;;;;;;;;;;6253687;23;20792;-90
2022/04/13 02:07:01;;;;;;;8.63;3.22;;;;;;;;;;6253616;22;20023;-90
2022/04/13 02:09:29;;;;;;;6.38;3.40;;;;;;;;;;6254110;22;20043;-90
2022/04/13 02:11:57;;;;;;;7.55;3.70;;;;;;;;;;6253814;22;20023;-90
2022/04/13 02:14:25;;;;;;;7.45;3.38;;;;;;;;;;6253798;23;20119;-90
2022/04/13 02:16:53;;;;;;;6.15;3.28;;;;;;;;;;6253925;22;20123;-90
2022/04/13 02:19:21;;;;;;;6.55;3.25;;;;;;;;;;6253189;22;20021;-90
2022/04/13 02:21:51;;;;;;;6.93;3.15;;;;;;;;;;6253146;23;20050;-90
2022/04/13 02:24:19;;;;;;;6.35;3.05;;;;;;;;;;6253073;22;20020;-90
2022/04/13 02:26:47;;;;;;;6.53;3.13;;;;;;;;;;6252872;23;20016;-90
2022/04/13 02:29:15;;;;;;;8.00;3.08;;;;;;;;;;6253249;22;20024;-90
2022/04/13 02:31:43;;;;;;;8.15;3.42;;;;;;;;;;6253448;23;20023;-91
2022/04/13 02:34:13;;;;;;;9.38;3.03;;;;;;;;;;6251644;23;20665;-91
2022/04/13 02:36:41;;;;;;;7.80;3.30;;;;;;;;;;6252855;22;20091;-91
2022/04/13 02:39:09;;;;;;;7.03;3.53;;;;;;;;;;6253561;23;20088;-91
2022/04/13 02:41:38;;;;;;;6.88;3.28;;;;;;;;;;6250806;22;20016;-85
2022/04/13 02:44:05;;;;;;;8.27;3.70;;;;;;;;;;6251039;22;20119;-86
2022/04/13 02:46:33;;;;;;;11.95;4.25;;;;;;;;;;6250993;23;20661;-90
2022/04/13 02:49:01;;;;;;;9.95;3.58;;;;;;;;;;6252477;23;20027;-90
2022/04/13 02:51:29;;;;;;;8.00;3.15;;;;;;;;;;6253122;23;20024;-90
2022/04/13 02:53:57;;;;;;;10.82;3.90;;;;;;;;;;6252977;22;20440;-90
2022/04/13 02:56:25;;;;;;;6.55;3.47;;;;;;;;;;6251622;23;20112;-90
2022/04/13 02:58:53;;;;;;;6.68;3.47;;;;;;;;;;6252779;23;20095;-90
2022/04/13 03:01:21;;;;;;;6.30;3.50;;;;;;;;;;6252673;23;20090;-89
2022/04/13 03:03:49;;;;;;;9.75;4.13;;;;;;;;;;6252695;22;20046;-90
2022/04/13 03:06:17;;;;;;;8.52;3.38;;;;;;;;;;6252520;22;20019;-90
2022/04/13 03:08:45;;;;;;;6.78;3.17;;;;;;;;;;6252781;23;20016;-91
2022/04/13 03:11:13;;;;;;;10.43;3.63;;;;;;;;;;6253232;23;20772;-91
2022/04/13 03:13:41;;;;;;;5.70;3.22;;;;;;;;;;6252269;22;20022;-91
2022/04/13 03:16:09;;;;;;;5.47;3.00;;;;;;;;;;6251468;23;20091;-90
2022/04/13 03:18:37;;;;;;;7.78;3.70;;;;;;;;;;6241012;23;20443;-90
2022/04/13 03:21:05;;;;;;;7.45;3.70;;;;;;;;;;6240888;23;20059;-90
2022/04/13 03:23:33;;;;;;;7.50;3.30;;;;;;;;;;6252408;23;20020;-91
2022/04/13 03:26:01;;;;;;;8.32;3.30;;;;;;;;;;6252841;22;20008;-91
2022/04/13 03:28:29;;;;;;;8.77;3.80;;;;;;;;;;6225537;23;20305;-91
2022/04/13 03:30:57;;;;;;;8.93;4.05;;;;;;;;;;6252550;23;20026;-91
2022/04/13 03:33:25;;;;;;;6.38;3.10;;;;;;;;;;6250830;23;20024;-91
2022/04/13 03:35:53;;;;;;;7.22;3.95;;;;;;;;;;6252573;23;20772;-91
2022/04/13 03:38:21;;;;;;;6.78;3.30;;;;;;;;;;6252209;23;20099;-91
2022/04/13 03:40:49;;;;;;;7.47;3.50;;;;;;;;;;6253227;23;20042;-91
2022/04/13 03:43:17;;;;;;;8.68;3.60;;;;;;;;;;6249884;23;20016;-90
2022/04/13 03:45:45;;;;;;;7.45;3.55;;;;;;;;;;6252580;23;20016;-91
2022/04/13 03:48:15;;;;;;;8.75;4.03;;;;;;;;;;6252574;22;20541;-91
2022/04/13 03:50:43;;;;;;;7.85;3.25;;;;;;;;;;6252121;23;20095;-91
2022/04/13 03:53:11;;;;;;;7.78;3.53;;;;;;;;;;6251910;23;20012;-91
2022/04/13 03:55:39;;;;;;;6.88;3.40;;;;;;;;;;6252179;22;20023;-91
2022/04/13 03:58:07;;;;;;;7.60;3.92;;;;;;;;;;6250029;23;20016;-89
2022/04/13 04:00:35;;;;;;;9.70;3.92;;;;;;;;;;6251715;23;20044;-89
2022/04/13 04:03:03;;;;;;;7.43;3.63;;;;;;;;;;6252183;22;20016;-89
2022/04/13 04:05:31;;;;;;;6.70;3.58;;;;;;;;;;6251728;22;20405;-90
2022/04/13 04:07:59;;;;;;;10.48;3.80;;;;;;;;;;6250812;23;20019;-90
2022/04/13 04:10:27;;;;;;;10.40;4.35;;;;;;;;;;6251261;23;20016;-89
2022/04/13 04:13:01;;;;;;;8.40;3.85;;;;;;;;;;6251276;23;20050;-90
2022/04/13 04:15:29;;;;;;;8.48;4.22;;;;;;;;;;6251891;22;20115;-90
2022/04/13 04:17:57;;;;;;;7.72;3.75;;;;;;;;;;6251804;23;20027;-89
2022/04/13 04:20:25;;;;;;;7.90;3.65;;;;;;;;;;6243144;23;20095;-89
2022/04/13 04:22:55;;;;;;;8.38;3.75;;;;;;;;;;6250466;23;20031;-90
2022/04/13 04:25:23;;;;;;;7.35;3.33;;;;;;;;;;6252675;22;20012;-90
2022/04/13 04:27:54;;;;;;;8.65;3.92;;;;;;;;;;6253015;22;20016;-89
2022/04/13 04:30:21;;;;;;;7.68;4.40;;;;;;;;;;6253245;22;20069;-90
2022/04/13 04:32:49;;;;;;;8.60;4.22;;;;;;;;;;6252099;22;20637;-90
2022/04/13 04:35:17;;;;;;;7.03;3.60;;;;;;;;;;6252359;23;20016;-90
2022/04/13 04:37:45;;;;;;;8.25;4.05;;;;;;;;;;6252035;22;20043;-89
2022/04/13 04:40:13;;;;;;;9.90;3.63;;;;;;;;;;6252084;23;20046;-90
2022/04/13 04:42:45;;;;;;;9.27;3.67;;;;;;;;;;6239938;23;20023;-89
2022/04/13 04:45:19;;;;;;;7.72;3.70;;;;;;;;;;6251619;22;20087;-89
2022/04/13 04:47:49;;;;;;;7.50;3.50;;;;;;;;;;6251873;22;20139;-90
2022/04/13 04:50:19;;;;;;;6.60;3.35;;;;;;;;;;6251908;22;20482;-90
2022/04/13 04:52:48;;;;;;;8.77;4.32;;;;;;;;;;6239051;23;20023;-90
2022/04/13 04:55:16;;;;;;;9.77;3.88;;;;;;;;;;6252218;22;20048;-90
2022/04/13 04:57:46;;;;;;;10.13;3.70;;;;;;;;;;6255127;22;20027;-90
2022/04/13 05:00:25;;;;;;;6.40;3.92;;;;;;;;;;6243241;23;20024;-90
2022/04/13 05:02:53;;;;;;;10.40;3.95;;;;;;;;;;6251381;22;20020;-90
2022/04/13 05:05:21;;;;;;;8.55;4.07;;;;;;;;;;6251770;22;20070;-90
2022/04/13 05:07:49;;;;;;;7.53;3.90;;;;;;;;;;6251064;22;20734;-90
2022/04/13 05:10:20;;;;;;;7.53;3.90;;;;;;;;;;6252101;23;20050;-90
2022/04/13 05:12:50;;;;;;;8.60;4.03;;;;;;;;;;6253209;22;20103;-90
2022/04/13 05:15:17;;;;;;;10.23;4.15;;;;;;;;;;6254271;22;20016;-90
2022/04/13 05:17:45;;;;;;;11.75;4.07;;;;;;;;;;6253746;22;20020;-90
2022/04/13 05:20:13;;;;;;;7.25;4.15;;;;;;;;;;6253935;23;20079;-90
2022/04/13 05:22:41;;;;;;;7.28;3.58;;;;;;;;;;6253020;22;20065;-90
2022/04/13 05:25:11;;;;;;;9.60;3.90;;;;;;;;;;6253526;22;20062;-90
2022/04/13 05:27:39;;;;;;;12.05;4.30;;;;;;;;;;6253629;22;20024;-90
2022/04/13 05:30:09;;;;;;;8.30;3.90;;;;;;;;;;6253718;23;20095;-90
2022/04/13 05:32:51;;;;;;;11.75;4.50;;;;;;;;;;6253493;22;20101;-90
2022/04/13 05:35:19;;;;;;;8.60;3.95;;;;;;;;;;6253817;22;20020;-90
2022/04/13 05:37:47;;;;;;;9.65;4.75;;;;;;;;;;6252990;22;20766;-90
2022/04/13 05:40:15;;;;;;;9.15;4.20;;;;;;;;;;6253614;23;20026;-90
2022/04/13 05:42:43;;;;;;;9.20;3.97;;;;;;;;;;6253022;22;20012;-90
2022/04/13 05:45:14;;;;;;;10.70;4.00;;;;;;;;;;6254338;22;20020;-90
2022/04/13 05:47:44;;;;;;;10.70;4.25;;;;;;;;;;6255092;22;20036;-91
2022/04/13 05:50:12;;;;;;;10.32;3.85;;;;;;;;;;6217678;23;20027;-90
2022/04/13 05:52:40;;;;;;;9.57;4.60;;;;;;;;;;6252940;23;20024;-90
2022/04/13 05:55:08;;;;;;;8.38;3.88;;;;;;;;;;6253716;22;20402;-90
2022/04/13 05:57:35;;;;;;;7.40;4.10;;;;;;;;;;6252817;22;20074;-89
2022/04/13 06:00:10;;;;;;;10.13;4.60;;;;;;;;;;6252929;23;20094;-89
2022/04/13 06:02:38;;;;;;;10.25;4.38;;;;;;;;;;6253079;22;20020;-89
2022/04/13 06:05:08;;;;;;;9.88;4.35;;;;;;;;;;6250196;22;20012;-88
2022/04/13 06:07:35;;;;;;;7.72;4.07;;;;;;;;;;6250638;22;20047;-88
2022/04/13 06:10:05;;;;;;;9.63;4.35;;;;;;;;;;6251912;22;20782;-84
2022/04/13 06:12:33;;;;;;;11.55;5.10;;;;;;;;;;6252420;23;20102;-84
2022/04/13 06:15:09;;;;;;;8.93;4.40;;;;;;;;;;6240975;23;20024;-84
2022/04/13 06:17:38;;;;;;;8.85;3.97;;;;;;;;;;6252052;22;20032;-84
2022/04/13 06:20:06;;;;;;;9.10;4.35;;;;;;;;;;6252356;23;20020;-83
2022/04/13 06:22:38;;;;;;;10.45;4.95;;;;;;;;;;6239448;22;20349;-83
2022/04/13 06:25:06;;;;;;;10.90;4.43;;;;;;;;;;6251620;23;20024;-84
2022/04/13 06:27:33;;;;;;;9.57;5.68;;;;;;;;;;6250324;22;20016;-84
2022/04/13 06:30:02;;;;;;;8.88;4.65;;;;;;;;;;6251712;23;20603;-84
2022/04/13 06:32:37;;;;;;;9.25;5.10;;;;;;;;;;6245324;22;20030;-84
2022/04/13 06:35:07;;;;;;;8.90;4.00;;;;;;;;;;6249734;22;20402;-84
2022/04/13 06:37:36;;;;;;;9.45;5.00;;;;;;;;;;6239672;23;20087;-85
2022/04/13 06:40:04;;;;;;;9.85;5.15;;;;;;;;;;6251804;22;20051;-84
2022/04/13 06:42:36;;;;;;;9.57;4.57;;;;;;;;;;6253550;22;20050;-85
2022/04/13 06:45:07;;;;;;;8.65;4.60;;;;;;;;;;6255136;23;20020;-84
2022/04/13 06:47:35;;;;;;;11.25;4.75;;;;;;;;;;6260732;22;20015;-85
2022/04/13 06:50:03;;;;;;;12.68;4.63;;;;;;;;;;6250066;23;20016;-84
2022/04/13 06:52:35;;;;;;;9.27;5.00;;;;;;;;;;6261622;23;20041;-84
2022/04/13 06:55:11;;;;;;;11.85;5.75;;;;;;;;;;6259505;22;20030;-85
2022/04/13 06:57:44;;;;;;;11.45;4.80;;;;;;;;;;6256269;23;20401;-85
2022/04/13 07:00:14;;;;;;;10.90;4.82;;;;;;;;;;6254207;22;20091;-84
2022/04/13 07:02:46;;;;;;;11.23;5.15;;;;;;;;;;6255874;23;20037;-84
2022/04/13 07:05:36;;;;;;;11.13;5.25;;;;;;;;;;6255976;23;20020;-84
2022/04/13 07:08:06;;;;;;;10.25;5.30;;;;;;;;;;6254562;22;20093;-84
2022/04/13 07:10:35;;;;;;;10.38;5.43;;;;;;;;;;6255116;22;20568;-84
2022/04/13 07:13:11;;;;;;;10.15;4.93;;;;;;;;;;6253965;22;20020;-85
2022/04/13 07:15:39;;;;;;;9.27;4.88;;;;;;;;;;6254061;22;20095;-84
2022/04/13 07:18:07;;;;;;;11.75;5.20;;;;;;;;;;6252730;22;20522;-85
2022/04/13 07:20:35;;;;;;;12.20;5.15;;;;;;;;;;6253518;22;20024;-85
2022/04/13 07:23:03;;;;;;;10.07;5.20;;;;;;;;;;6250749;22;20016;-84
2022/04/13 07:25:31;;;;;;;9.73;5.03;;;;;;;;;;6248653;23;20436;-85
2022/04/13 07:27:59;;;;;;;11.90;5.18;;;;;;;;;;6252772;23;20474;-84
2022/04/13 07:30:28;;;;;;;9.65;5.45;;;;;;;;;;6254955;23;20019;-84
2022/04/13 07:33:04;;;;;;;16.30;5.90;;;;;;;;;;6250450;23;20085;-84
2022/04/13 07:35:31;;;;;;;9.38;4.70;;;;;;;;;;6250549;22;20502;-83
2022/04/13 07:37:59;;;;;;;11.45;5.38;;;;;;;;;;6249394;22;20023;-83
2022/04/13 07:40:27;;;;;;;10.88;5.80;;;;;;;;;;6250703;23;20099;-83
2022/04/13 07:42:55;;;;;;;14.55;4.82;;;;;;;;;;6247630;23;20128;-83
2022/04/13 07:45:23;;;;;;;10.68;5.35;;;;;;;;;;6249801;23;20359;-83
2022/04/13 07:47:51;;;;;;;10.50;5.43;;;;;;;;;;6248816;22;20024;-83
2022/04/13 07:50:19;;;;;;;10.90;4.95;;;;;;;;;;6250047;23;20074;-83
2022/04/13 07:52:47;;;;;;;15.57;5.70;;;;;;;;;;6248098;23;20539;-83
2022/04/13 07:55:15;;;;;;;11.40;4.90;;;;;;;;;;6249288;23;20020;-83
2022/04/13 07:57:43;;;;;;;11.25;5.55;;;;;;;;;;6248265;23;20012;-83
2022/04/13 08:00:12;;;;;;;11.40;5.88;;;;;;;;;;6239510;23;20031;-83
2022/04/13 08:02:40;;;;;;;11.63;5.05;;;;;;;;;;6248448;22;20328;-83
2022/04/13 08:05:12;;;;;;;13.93;5.20;;;;;;;;;;6250132;22;20039;-83
2022/04/13 08:07:40;;;;;;;10.60;5.28;;;;;;;;;;6248223;22;20023;-83
2022/04/13 08:10:07;;;;;;;10.70;5.10;;;;;;;;;;6222357;23;20455;-83
2022/04/13 08:12:35;;;;;;;8.82;5.38;;;;;;;;;;6249879;22;20055;-83
2022/04/13 08:15:04;;;;;;;12.88;6.20;;;;;;;;;;6249769;22;20039;-83
2022/04/13 08:17:31;;;;;;;12.38;5.72;;;;;;;;;;6248628;22;20027;-83
2022/04/13 08:19:59;;;;;;;15.77;5.38;;;;;;;;;;6249365;23;20020;-83
2022/04/13 08:22:28;;;;;;;9.40;5.18;;;;;;;;;;6249212;23;20020;-83
2022/04/13 08:24:55;;;;;;;12.52;5.40;;;;;;;;;;6247474;23;20023;-83
2022/04/13 08:27:23;;;;;;;11.85;5.47;;;;;;;;;;6248157;22;20348;-83
2022/04/13 08:29:51;;;;;;;10.88;5.32;;;;;;;;;;6249774;23;20024;-83
2022/04/13 08:32:19;;;;;;;10.43;5.47;;;;;;;;;;6248615;22;20039;-83
2022/04/13 08:34:52;;;;;;;12.23;5.50;;;;;;;;;;6250148;23;20491;-83
2022/04/13 08:37:20;;;;;;;10.13;5.35;;;;;;;;;;6249224;22;20032;-83
2022/04/13 08:39:47;;;;;;;10.77;5.47;;;;;;;;;;6249090;22;20099;-83
2022/04/13 08:42:27;;;;;;;9.82;5.50;;;;;;;;;;6248922;23;20786;-83
2022/04/13 08:44:59;;;;;;;11.82;5.43;;;;;;;;;;6249967;22;20087;-83
2022/04/13 08:47:28;;;;;;;13.55;5.43;;;;;;;;;;6248855;23;20020;-83
2022/04/13 08:49:57;;;;;;;14.07;6.03;;;;;;;;;;6250836;22;20027;-83
2022/04/13 08:52:31;;;;;;;13.35;5.78;;;;;;;;;;6251765;22;20473;-83
2022/04/13 08:55:06;;;;;;;10.77;5.13;;;;;;;;;;6250325;22;20016;-83
2022/04/13 08:57:41;;;;;;;12.80;5.95;;;;;;;;;;6249940;22;20032;-82
2022/04/13 09:00:13;;;;;;;10.98;5.07;;;;;;;;;;6251615;23;20046;-81
2022/04/13 09:02:47;;;;;;;11.55;5.55;;;;;;;;;;6239914;22;20043;-82
2022/04/13 09:05:20;;;;;;;11.43;6.18;;;;;;;;;;6249925;22;20016;-82
2022/04/13 09:07:57;;;;;;;9.88;5.32;;;;;;;;;;6248775;22;20016;-83
2022/04/13 09:10:25;;;;;;;11.88;5.82;;;;;;;;;;6251097;22;20027;-82
2022/04/13 09:12:53;;;;;;;17.27;6.10;;;;;;;;;;6249092;22;20520;-82
2022/04/13 09:15:21;;;;;;;11.27;5.35;;;;;;;;;;6250205;22;20051;-82
2022/04/13 09:17:54;;;;;;;10.65;5.32;;;;;;;;;;6239204;22;20069;-82
2022/04/13 09:20:21;;;;;;;13.90;5.30;;;;;;;;;;6241190;22;20458;-82
2022/04/13 09:22:51;;;;;;;12.48;6.05;;;;;;;;;;6250103;22;20103;-82
2022/04/13 09:25:20;;;;;;;10.10;5.78;;;;;;;;;;6252216;22;20300;-82
2022/04/13 09:27:48;;;;;;;11.40;5.82;;;;;;;;;;6250321;22;20027;-82
2022/04/13 09:30:15;;;;;;;14.63;5.53;;;;;;;;;;6251781;22;20042;-83
2022/04/13 09:32:44;;;;;;;25.98;5.75;;;;;;;;;;6251209;22;20016;-83
2022/04/13 09:35:13;;;;;;;10.57;5.70;;;;;;;;;;6251874;22;20030;-82
2022/04/13 09:37:41;;;;;;;11.05;5.47;;;;;;;;;;6250298;22;20358;-81
2022/04/13 09:40:10;;;;;;;12.45;5.78;;;;;;;;;;6250698;22;20024;-82
2022/04/13 09:42:37;;;;;;;13.02;6.05;;;;;;;;;;6250453;22;20012;-82
2022/04/13 09:45:05;;;;;;;10.52;5.35;;;;;;;;;;6242119;23;20463;-82
2022/04/13 09:47:33;;;;;;;12.75;5.75;;;;;;;;;;6250422;23;20106;-82
2022/04/13 09:50:01;;;;;;;9.85;5.57;;;;;;;;;;6252231;22;20024;-82
2022/04/13 09:52:41;;;;;;;11.02;4.97;;;;;;;;;;6251090;22;20084;-82
2022/04/13 09:55:09;;;;;;;14.10;6.07;;;;;;;;;;6241043;23;20095;-82
2022/04/13 09:57:37;;;;;;;8.95;5.28;;;;;;;;;;6249750;22;20020;-82
2022/04/13 10:00:07;;;;;;;10.52;5.72;;;;;;;;;;6250827;23;20447;-82
2022/04/13 10:02:41;;;;;;;10.43;5.50;;;;;;;;;;6250584;22;20047;-82
2022/04/13 10:05:30;;;;;;;11.55;6.05;;;;;;;;;;6251376;22;20103;-82
2022/04/13 10:08:02;;;;;;;12.13;6.30;;;;;;;;;;6239622;22;20020;-82
2022/04/13 10:10:29;;;;;;;12.18;6.60;;;;;;;;;;6251171;22;20030;-83
2022/04/13 10:12:57;;;;;;;13.48;6.30;;;;;;;;;;6248486;23;20023;-83
2022/04/13 10:15:25;;;;;;;16.58;6.15;;;;;;;;;;6249805;22;20024;-83
2022/04/13 10:18:00;;;;;;;10.38;5.85;;;;;;;;;;6247906;23;20012;-86
2022/04/13 10:20:46;;;;;;;14.25;6.53;;;;;;;;;;6251990;22;20026;-83
2022/04/13 10:23:14;;;;;;;10.45;5.70;;;;;;;;;;6247814;22;20051;-83
2022/04/13 10:25:42;;;;;;;14.75;6.10;;;;;;;;;;6250500;22;20020;-83
2022/04/13 10:28:12;;;;;;;12.88;6.55;;;;;;;;;;6249254;22;20047;-83
2022/04/13 10:30:42;;;;;;;15.27;7.05;;;;;;;;;;6251521;22;20051;-83
2022/04/13 10:33:11;;;;;;;11.68;5.90;;;;;;;;;;6250317;22;20043;-83
2022/04/13 10:35:43;;;;;;;12.10;6.63;;;;;;;;;;6250367;22;20027;-84
2022/04/13 10:38:12;;;;;;;16.88;7.32;;;;;;;;;;6250000;22;20344;-83
2022/04/13 10:40:42;;;;;;;12.68;6.47;;;;;;;;;;6250693;22;20098;-83
2022/04/13 10:43:12;;;;;;;15.45;7.35;;;;;;;;;;6249864;22;20020;-83
2022/04/13 10:45:42;;;;;;;15.02;6.68;;;;;;;;;;6250437;22;20465;-83
2022/04/13 10:48:11;;;;;;;14.73;6.72;;;;;;;;;;6249292;22;20012;-83
2022/04/13 10:50:59;;;;;;;16.08;6.45;;;;;;;;;;6250771;22;20126;-83
2022/04/13 10:53:41;;;;;;;14.63;7.15;;;;;;;;;;6250591;22;20103;-83
2022/04/13 10:56:11;;;;;;;13.88;6.85;;;;;;;;;;6250318;22;20023;-83
2022/04/13 10:58:52;;;;;;;13.60;6.70;;;;;;;;;;6249001;22;20063;-83
2022/04/13 11:01:23;;;;;;;14.75;6.50;;;;;;;;;;6249828;22;20024;-82
2022/04/13 11:03:55;;;;;;;13.38;6.65;;;;;;;;;;6252083;22;20027;-83
2022/04/13 11:06:26;;;;;;;16.52;7.70;;;;;;;;;;6252211;22;20020;-83
2022/04/13 11:09:04;;;;;;;14.38;6.97;;;;;;;;;;6238147;22;20035;-85
2022/04/13 11:11:35;;;;;;;15.18;6.53;;;;;;;;;;6247335;22;20027;-86
2022/04/13 11:14:19;;;;;;;15.18;6.93;;;;;;;;;;6248700;22;20031;-85
2022/04/13 11:16:51;;;;;;;16.70;6.38;;;;;;;;;;6246829;22;20414;-85
2022/04/13 11:19:20;;;;;;;15.35;6.93;;;;;;;;;;6247679;22;20050;-85
2022/04/13 11:21:51;;;;;;;17.20;7.05;;;;;;;;;;6248615;22;20167;-86
2022/04/13 11:24:35;;;;;;;15.68;6.82;;;;;;;;;;6248682;23;20775;-82
2022/04/13 11:27:04;;;;;;;13.20;6.40;;;;;;;;;;6249449;22;20120;-83
2022/04/13 11:29:40;;;;;;;18.05;6.93;;;;;;;;;;6250506;22;20886;-83
2022/04/13 11:32:10;;;;;;;16.48;7.85;;;;;;;;;;6251026;22;20103;-83
2022/04/13 11:34:48;;;;;;;14.13;6.43;;;;;;;;;;6251422;22;20031;-84
2022/04/13 11:37:18;;;;;;;18.48;7.53;;;;;;;;;;6250349;22;20470;-84
2022/04/13 11:39:59;;;;;;;17.40;7.97;;;;;;;;;;6248994;22;20078;-85
2022/04/13 11:42:26;;;;;;;19.65;6.93;;;;;;;;;;6249415;22;20020;-85
2022/04/13 11:45:06;;;;;;;18.20;6.18;;;;;;;;;;6250228;22;20347;-84
2022/04/13 11:47:40;;;;;;;18.10;7.00;;;;;;;;;;6248596;22;20412;-85
2022/04/13 11:50:12;;;;;;;13.52;6.63;;;;;;;;;;6238340;23;20024;-84
2022/04/13 11:52:41;;;;;;;14.48;7.15;;;;;;;;;;6237159;23;20020;-84
2022/04/13 11:55:31;;;;;;;16.50;7.10;;;;;;;;;;6249338;22;20118;-84
2022/04/13 11:58:05;;;;;;;18.73;6.72;;;;;;;;;;6248186;22;20020;-84
2022/04/13 12:00:59;;;;;;;18.13;7.10;;;;;;;;;;6248354;23;20020;-84
2022/04/13 12:03:32;;;;;;;20.50;7.20;;;;;;;;;;6248622;22;20043;-85
2022/04/13 12:06:07;;;;;;;18.10;9.15;;;;;;;;;;6249564;22;20069;-84
2022/04/13 12:08:45;;;;;;;20.45;7.90;;;;;;;;;;6248959;22;20040;-84
2022/04/13 12:11:16;;;;;;;19.80;7.68;;;;;;;;;;6241229;23;20036;-84
2022/04/13 12:13:52;;;;;;;19.45;7.07;;;;;;;;;;6250301;22;20369;-84
2022/04/13 12:16:25;;;;;;;18.00;7.10;;;;;;;;;;6248885;23;20398;-84
2022/04/13 12:18:55;;;;;;;23.55;7.03;;;;;;;;;;6249365;22;20028;-84
2022/04/13 12:21:26;;;;;;;15.20;6.78;;;;;;;;;;6251958;22;20055;-83
2022/04/13 12:23:55;;;;;;;18.05;7.57;;;;;;;;;;6250997;23;20031;-83
2022/04/13 12:26:38;;;;;;;21.65;7.75;;;;;;;;;;6253127;22;20428;-83
2022/04/13 12:29:18;;;;;;;23.13;8.27;;;;;;;;;;6251044;22;20016;-84
2022/04/13 12:31:51;;;;;;;22.77;7.82;;;;;;;;;;6249480;22;20473;-84
2022/04/13 12:34:23;;;;;;;19.42;7.28;;;;;;;;;;6251488;22;20027;-84
2022/04/13 12:36:58;;;;;;;18.88;6.82;;;;;;;;;;6254706;23;20020;-84
2022/04/13 12:39:29;;;;;;;20.67;7.50;;;;;;;;;;6251288;22;20024;-85
2022/04/13 12:41:57;;;;;;;21.98;7.97;;;;;;;;;;6240162;22;20462;-84
2022/04/13 12:44:24;;;;;;;19.30;7.47;;;;;;;;;;6252453;22;20020;-83
2022/04/13 12:47:03;;;;;;;20.63;7.35;;;;;;;;;;6251368;22;20048;-83
2022/04/13 12:49:31;;;;;;;24.88;8.43;;;;;;;;;;6242235;22;20023;-83
2022/04/13 12:51:58;;;;;;;23.25;7.47;;;;;;;;;;6252577;22;20034;-84
2022/04/13 12:54:28;;;;;;;28.05;8.48;;;;;;;;;;6253152;23;20375;-84
2022/04/13 12:56:56;;;;;;;23.48;7.35;;;;;;;;;;6252708;23;20020;-84
2022/04/13 12:59:25;;;;;;;19.80;6.85;;;;;;;;;;6250729;22;20023;-84
2022/04/13 13:01:54;;;;;;;18.98;7.82;;;;;;;;;;6250055;22;20024;-84
2022/04/13 13:04:29;;;;;;;21.92;7.90;;;;;;;;;;6250892;22;20024;-84
2022/04/13 13:07:04;;;;;;;18.75;7.68;;;;;;;;;;6251611;22;20016;-83
2022/04/13 13:09:39;;;;;;;21.77;7.95;;;;;;;;;;6239719;22;20050;-83
2022/04/13 13:12:13;;;;;;;17.40;6.30;;;;;;;;;;6241346;22;20028;-83
2022/04/13 13:14:43;;;;;;;20.33;8.15;;;;;;;;;;6241883;22;20020;-83
2022/04/13 13:17:42;;;;;;;19.48;8.05;;;;;;;;;;6253286;22;20058;-84
2022/04/13 13:20:09;;;;;;;19.50;8.95;;;;;;;;;;6245169;22;20028;-84
2022/04/13 13:22:44;;;;;;;20.98;7.47;;;;;;;;;;6251266;22;20439;-83
2022/04/13 13:25:15;;;;;;;18.92;7.93;;;;;;;;;;6253417;23;20050;-83
2022/04/13 13:27:48;;;;;;;21.25;7.15;;;;;;;;;;6250379;22;20090;-83
2022/04/13 13:30:19;;;;;;;21.90;6.60;;;;;;;;;;6250888;22;20482;-82
2022/04/13 13:32:50;;;;;;;21.63;7.63;;;;;;;;;;6251969;22;20851;-83
2022/04/13 13:35:20;;;;;;;19.35;6.85;;;;;;;;;;6252049;22;20046;-83
2022/04/13 13:38:07;;;;;;;17.77;6.88;;;;;;;;;;6252244;22;20027;-83
2022/04/13 13:40:40;;;;;;;17.33;6.47;;;;;;;;;;6255867;23;20039;-83
2022/04/13 13:43:16;;;;;;;14.80;6.75;;;;;;;;;;6244465;23;20086;-83
2022/04/13 13:45:49;;;;;;;14.07;5.13;;;;;;;;;;6255212;23;20857;-84
2022/04/13 13:48:25;;;;;;;15.38;5.95;;;;;;;;;;6255045;22;20507;-83
2022/04/13 13:50:54;;;;;;;17.13;6.88;;;;;;;;;;6256472;22;20024;-83
2022/04/13 13:53:24;;;;;;;13.18;6.07;;;;;;;;;;6260771;22;20064;-84
2022/04/13 13:55:52;;;;;;;15.18;5.45;;;;;;;;;;6263635;23;20087;-84
2022/04/13 13:58:20;;;;;;;13.13;5.70;;;;;;;;;;6264004;22;20020;-83
2022/04/13 14:00:50;;;;;;;15.82;6.20;;;;;;;;;;6260743;22;20087;-84
2022/04/13 14:03:19;;;;;;;15.70;5.90;;;;;;;;;;6247416;22;20039;-82
2022/04/13 14:05:50;;;;;;;14.95;5.50;;;;;;;;;;6254631;22;20020;-81
2022/04/13 14:08:20;;;;;;;18.83;6.03;;;;;;;;;;6250352;22;20016;-82
2022/04/13 14:10:48;;;;;;;14.15;6.30;;;;;;;;;;6251393;23;20355;-84
2022/04/13 14:13:16;;;;;;;18.45;6.45;;;;;;;;;;6240554;22;20118;-84
2022/04/13 14:15:45;;;;;;;16.27;5.90;;;;;;;;;;6250765;22;20044;-83
2022/04/13 14:18:13;;;;;;;15.20;6.40;;;;;;;;;;6249017;23;20087;-83
2022/04/13 14:20:41;;;;;;;15.38;6.85;;;;;;;;;;6250944;22;20043;-83
2022/04/13 14:23:08;;;;;;;18.40;5.95;;;;;;;;;;6249737;22;20036;-83
2022/04/13 14:25:36;;;;;;;16.00;6.47;;;;;;;;;;6249030;22;20020;-83
2022/04/13 14:28:05;;;;;;;13.18;6.00;;;;;;;;;;6248530;23;20111;-83
2022/04/13 14:30:32;;;;;;;14.93;6.35;;;;;;;;;;6250004;22;20027;-83
2022/04/13 14:33:00;;;;;;;17.83;5.88;;;;;;;;;;6250171;23;20024;-83
2022/04/13 14:35:28;;;;;;;14.88;6.13;;;;;;;;;;6250614;22;20024;-84
2022/04/13 14:37:56;;;;;;;16.05;6.35;;;;;;;;;;6249794;23;20023;-83
2022/04/13 14:40:24;;;;;;;15.25;5.97;;;;;;;;;;6250576;22;20019;-84
2022/04/13 14:42:53;;;;;;;14.27;6.40;;;;;;;;;;6248481;23;20020;-83
2022/04/13 14:45:21;;;;;;;15.70;6.43;;;;;;;;;;6251682;22;20024;-83
2022/04/13 14:47:59;;;;;;;20.20;6.90;;;;;;;;;;6251726;22;20075;-83
2022/04/13 14:50:26;;;;;;;15.32;5.55;;;;;;;;;;6250280;22;20020;-85
2022/04/13 14:52:55;;;;;;;14.32;6.57;;;;;;;;;;6248758;22;20119;-86